sensor_id;sensor_type;location;lat;lon;timestamp;pressure;altitude;pressure_sealevel;temperature;humidity
26823;BME280;14852;51.910;8.878;2023-02-18T00:00:18;100186.84;;;10.48;59.80
26823;BME280;14852;51.910;8.878;2023-02-18T00:02:45;100190.97;;;10.52;60.05
26823;BME280;14852;51.910;8.878;2023-02-18T00:05:12;100197.75;;;10.57;59.95
26823;BME280;14852;51.910;8.878;2023-02-18T00:07:39;100190.72;;;10.59;60.23
26823;BME280;14852;51.910;8.878;2023-02-18T00:10:11;100189.75;;;10.61;60.19
26823;BME280;14852;51.910;8.878;2023-02-18T00:12:37;100186.13;;;10.64;60.38
26823;BME280;14852;51.910;8.878;2023-02-18T00:15:04;100192.97;;;10.66;60.67
26823;BME280;14852;51.910;8.878;2023-02-18T00:17:30;100199.00;;;10.67;61.09
26823;BME280;14852;51.910;8.878;2023-02-18T00:19:56;100202.38;;;10.69;61.08
26823;BME280;14852;51.910;8.878;2023-02-18T00:22:22;100198.63;;;10.74;61.04
26823;BME280;14852;51.910;8.878;2023-02-18T00:24:48;100193.38;;;10.76;61.38
26823;BME280;14852;51.910;8.878;2023-02-18T00:27:15;100191.56;;;10.78;61.61
26823;BME280;14852;51.910;8.878;2023-02-18T00:29:40;100188.81;;;10.81;61.59
26823;BME280;14852;51.910;8.878;2023-02-18T00:32:06;100181.81;;;10.83;61.61
26823;BME280;14852;51.910;8.878;2023-02-18T00:34:32;100198.06;;;10.86;61.69
26823;BME280;14852;51.910;8.878;2023-02-18T00:37:02;100190.28;;;10.86;61.88
26823;BME280;14852;51.910;8.878;2023-02-18T00:39:28;100195.41;;;10.88;61.76
26823;BME280;14852;51.910;8.878;2023-02-18T00:41:54;100184.16;;;10.87;62.30
26823;BME280;14852;51.910;8.878;2023-02-18T00:44:20;100171.16;;;10.87;62.44
26823;BME280;14852;51.910;8.878;2023-02-18T00:46:46;100180.72;;;10.87;62.53
26823;BME280;14852;51.910;8.878;2023-02-18T00:49:12;100161.75;;;10.85;62.44
26823;BME280;14852;51.910;8.878;2023-02-18T00:51:40;100160.84;;;10.86;62.82
26823;BME280;14852;51.910;8.878;2023-02-18T00:54:06;100163.53;;;10.84;62.74
26823;BME280;14852;51.910;8.878;2023-02-18T00:56:32;100167.91;;;10.84;62.80
26823;BME280;14852;51.910;8.878;2023-02-18T00:58:58;100165.19;;;10.85;62.90
26823;BME280;14852;51.910;8.878;2023-02-18T01:01:24;100179.88;;;10.86;63.14
26823;BME280;14852;51.910;8.878;2023-02-18T01:03:50;100174.63;;;10.88;62.92
26823;BME280;14852;51.910;8.878;2023-02-18T01:06:16;100173.50;;;10.94;63.19
26823;BME280;14852;51.910;8.878;2023-02-18T01:08:42;100171.50;;;10.99;63.32
26823;BME280;14852;51.910;8.878;2023-02-18T01:11:10;100174.81;;;11.02;63.32
26823;BME280;14852;51.910;8.878;2023-02-18T01:13:36;100174.69;;;11.05;63.15
26823;BME280;14852;51.910;8.878;2023-02-18T01:16:06;100169.22;;;11.10;62.87
26823;BME280;14852;51.910;8.878;2023-02-18T01:18:32;100167.34;;;11.13;63.33
26823;BME280;14852;51.910;8.878;2023-02-18T01:20:58;100155.09;;;11.15;63.29
26823;BME280;14852;51.910;8.878;2023-02-18T01:23:24;100165.38;;;11.18;63.52
26823;BME280;14852;51.910;8.878;2023-02-18T01:25:50;100166.03;;;11.22;63.11
26823;BME280;14852;51.910;8.878;2023-02-18T01:28:16;100164.22;;;11.24;63.25
26823;BME280;14852;51.910;8.878;2023-02-18T01:30:43;100167.59;;;11.26;63.40
26823;BME280;14852;51.910;8.878;2023-02-18T01:33:09;100164.84;;;11.29;63.65
26823;BME280;14852;51.910;8.878;2023-02-18T01:35:39;100163.69;;;11.35;63.77
26823;BME280;14852;51.910;8.878;2023-02-18T01:38:05;100152.31;;;11.37;63.31
26823;BME280;14852;51.910;8.878;2023-02-18T01:40:31;100147.78;;;11.41;63.57
26823;BME280;14852;51.910;8.878;2023-02-18T01:42:58;100149.38;;;11.43;63.25
26823;BME280;14852;51.910;8.878;2023-02-18T01:48:24;100152.47;;;11.51;63.30
26823;BME280;14852;51.910;8.878;2023-02-18T01:51:07;100146.25;;;11.54;63.76
26823;BME280;14852;51.910;8.878;2023-02-18T01:53:43;100141.03;;;11.54;63.47
26823;BME280;14852;51.910;8.878;2023-02-18T01:56:15;100132.25;;;11.56;64.02
26823;BME280;14852;51.910;8.878;2023-02-18T01:58:43;100125.41;;;11.54;63.80
26823;BME280;14852;51.910;8.878;2023-02-18T02:01:09;100125.28;;;11.57;63.74
26823;BME280;14852;51.910;8.878;2023-02-18T02:03:35;100121.69;;;11.59;64.00
26823;BME280;14852;51.910;8.878;2023-02-18T02:06:01;100116.41;;;11.61;63.94
26823;BME280;14852;51.910;8.878;2023-02-18T02:08:28;100112.81;;;11.64;64.22
26823;BME280;14852;51.910;8.878;2023-02-18T02:13:54;100112.56;;;11.68;64.23
26823;BME280;14852;51.910;8.878;2023-02-18T02:16:42;100105.50;;;11.70;64.04
26823;BME280;14852;51.910;8.878;2023-02-18T02:37:41;100089.50;;;11.95;64.29
26823;BME280;14852;51.910;8.878;2023-02-18T02:40:36;100083.94;;;12.01;64.14
26823;BME280;14852;51.910;8.878;2023-02-18T02:43:24;100080.44;;;12.02;64.22
26823;BME280;14852;51.910;8.878;2023-02-18T02:46:13;100082.88;;;12.05;64.42
26823;BME280;14852;51.910;8.878;2023-02-18T02:51:50;100066.00;;;12.12;63.83
26823;BME280;14852;51.910;8.878;2023-02-18T02:54:25;100057.25;;;12.13;64.00
26823;BME280;14852;51.910;8.878;2023-02-18T03:00:06;100040.53;;;12.17;64.13
26823;BME280;14852;51.910;8.878;2023-02-18T03:08:54;100032.50;;;12.22;64.25
26823;BME280;14852;51.910;8.878;2023-02-18T03:11:24;100025.53;;;12.22;64.37
26823;BME280;14852;51.910;8.878;2023-02-18T03:17:21;100017.09;;;12.33;64.31
26823;BME280;14852;51.910;8.878;2023-02-18T03:19:59;100016.06;;;12.36;64.05
26823;BME280;14852;51.910;8.878;2023-02-18T03:22:31;100000.34;;;12.37;64.38
26823;BME280;14852;51.910;8.878;2023-02-18T03:25:03;100001.19;;;12.38;64.25
26823;BME280;14852;51.910;8.878;2023-02-18T03:27:53;99999.13;;;12.44;64.18
26823;BME280;14852;51.910;8.878;2023-02-18T03:30:37;99985.16;;;12.45;64.45
26823;BME280;14852;51.910;8.878;2023-02-18T03:33:07;99989.69;;;12.42;64.54
26823;BME280;14852;51.910;8.878;2023-02-18T03:35:36;99979.09;;;12.45;64.72
26823;BME280;14852;51.910;8.878;2023-02-18T03:38:15;99973.88;;;12.45;65.00
26823;BME280;14852;51.910;8.878;2023-02-18T03:40:44;99971.38;;;12.43;65.32
26823;BME280;14852;51.910;8.878;2023-02-18T03:43:10;99966.06;;;12.45;64.96
26823;BME280;14852;51.910;8.878;2023-02-18T03:45:37;99967.75;;;12.46;65.06
26823;BME280;14852;51.910;8.878;2023-02-18T03:48:04;99970.16;;;12.49;65.19
26823;BME280;14852;51.910;8.878;2023-02-18T03:50:30;99964.94;;;12.49;64.91
26823;BME280;14852;51.910;8.878;2023-02-18T03:52:55;99969.06;;;12.53;65.31
26823;BME280;14852;51.910;8.878;2023-02-18T03:55:21;99958.66;;;12.53;65.06
26823;BME280;14852;51.910;8.878;2023-02-18T03:57:47;99959.41;;;12.55;65.03
26823;BME280;14852;51.910;8.878;2023-02-18T04:00:14;99956.81;;;12.55;65.08
26823;BME280;14852;51.910;8.878;2023-02-18T04:02:40;99953.19;;;12.57;65.46
26823;BME280;14852;51.910;8.878;2023-02-18T04:05:08;99947.84;;;12.59;65.63
26823;BME280;14852;51.910;8.878;2023-02-18T04:07:34;99949.53;;;12.60;65.30
26823;BME280;14852;51.910;8.878;2023-02-18T04:10:00;99939.03;;;12.61;65.20
26823;BME280;14852;51.910;8.878;2023-02-18T04:12:26;99943.22;;;12.64;65.44
26823;BME280;14852;51.910;8.878;2023-02-18T04:14:52;99934.41;;;12.66;65.05
26823;BME280;14852;51.910;8.878;2023-02-18T04:17:18;99932.63;;;12.67;65.22
26823;BME280;14852;51.910;8.878;2023-02-18T04:19:44;99927.41;;;12.67;65.41
26823;BME280;14852;51.910;8.878;2023-02-18T04:22:09;99923.88;;;12.68;65.39
26823;BME280;14852;51.910;8.878;2023-02-18T04:24:35;99928.19;;;12.69;65.45
26823;BME280;14852;51.910;8.878;2023-02-18T04:27:01;99921.16;;;12.69;65.45
26823;BME280;14852;51.910;8.878;2023-02-18T04:29:27;99917.75;;;12.69;65.86
26823;BME280;14852;51.910;8.878;2023-02-18T04:31:53;99917.75;;;12.69;65.97
26823;BME280;14852;51.910;8.878;2023-02-18T04:34:19;99926.38;;;12.69;65.92
26823;BME280;14852;51.910;8.878;2023-02-18T04:36:44;99908.97;;;12.70;66.14
26823;BME280;14852;51.910;8.878;2023-02-18T04:39:10;99917.53;;;12.72;66.25
26823;BME280;14852;51.910;8.878;2023-02-18T04:41:36;99911.41;;;12.73;66.45
26823;BME280;14852;51.910;8.878;2023-02-18T04:44:02;99897.34;;;12.76;66.23
26823;BME280;14852;51.910;8.878;2023-02-18T04:46:27;99892.22;;;12.74;66.46
26823;BME280;14852;51.910;8.878;2023-02-18T04:48:53;99889.63;;;12.74;66.34
26823;BME280;14852;51.910;8.878;2023-02-18T04:51:19;99896.50;;;12.75;66.19
26823;BME280;14852;51.910;8.878;2023-02-18T04:53:45;99890.47;;;12.75;66.52
26823;BME280;14852;51.910;8.878;2023-02-18T04:56:11;99883.47;;;12.75;66.54
26823;BME280;14852;51.910;8.878;2023-02-18T04:58:37;99881.03;;;12.72;67.06
26823;BME280;14852;51.910;8.878;2023-02-18T05:01:03;99876.75;;;12.71;66.93
26823;BME280;14852;51.910;8.878;2023-02-18T05:03:30;99878.53;;;12.70;67.18
26823;BME280;14852;51.910;8.878;2023-02-18T05:05:55;99888.03;;;12.72;67.06
26823;BME280;14852;51.910;8.878;2023-02-18T05:08:22;99886.16;;;12.74;66.97
26823;BME280;14852;51.910;8.878;2023-02-18T05:10:48;99861.88;;;12.73;66.95
26823;BME280;14852;51.910;8.878;2023-02-18T05:13:13;99873.97;;;12.74;66.83
26823;BME280;14852;51.910;8.878;2023-02-18T05:15:39;99867.00;;;12.75;67.00
26823;BME280;14852;51.910;8.878;2023-02-18T05:18:05;99862.72;;;12.74;67.12
26823;BME280;14852;51.910;8.878;2023-02-18T05:20:31;99859.25;;;12.73;67.14
26823;BME280;14852;51.910;8.878;2023-02-18T05:22:58;99856.66;;;12.73;67.39
26823;BME280;14852;51.910;8.878;2023-02-18T05:25:24;99856.66;;;12.73;67.28
26823;BME280;14852;51.910;8.878;2023-02-18T05:27:49;99867.00;;;12.75;67.48
26823;BME280;14852;51.910;8.878;2023-02-18T05:30:15;99840.94;;;12.75;67.71
26823;BME280;14852;51.910;8.878;2023-02-18T05:32:41;99853.88;;;12.76;67.45
26823;BME280;14852;51.910;8.878;2023-02-18T05:35:08;99843.34;;;12.78;67.35
26823;BME280;14852;51.910;8.878;2023-02-18T05:37:34;99850.03;;;12.82;67.53
26823;BME280;14852;51.910;8.878;2023-02-18T05:40:00;99844.81;;;12.82;67.31
26823;BME280;14852;51.910;8.878;2023-02-18T05:42:25;99839.63;;;12.82;67.39
26823;BME280;14852;51.910;8.878;2023-02-18T05:44:51;99834.22;;;12.85;67.13
26823;BME280;14852;51.910;8.878;2023-02-18T05:47:17;99828.25;;;12.83;67.66
26823;BME280;14852;51.910;8.878;2023-02-18T05:49:43;99829.94;;;12.84;67.34
26823;BME280;14852;51.910;8.878;2023-02-18T05:52:09;99822.19;;;12.82;67.53
26823;BME280;14852;51.910;8.878;2023-02-18T05:54:36;99821.28;;;12.83;67.37
26823;BME280;14852;51.910;8.878;2023-02-18T05:57:02;99820.34;;;12.84;67.35
26823;BME280;14852;51.910;8.878;2023-02-18T05:59:28;99815.97;;;12.85;67.34
26823;BME280;14852;51.910;8.878;2023-02-18T06:01:54;99821.09;;;12.86;67.71
26823;BME280;14852;51.910;8.878;2023-02-18T06:04:20;99804.53;;;12.87;67.36
26823;BME280;14852;51.910;8.878;2023-02-18T06:06:46;99804.34;;;12.90;67.45
26823;BME280;14852;51.910;8.878;2023-02-18T06:09:12;99813.00;;;12.91;67.11
26823;BME280;14852;51.910;8.878;2023-02-18T06:11:38;99807.56;;;12.94;67.25
26823;BME280;14852;51.910;8.878;2023-02-18T06:14:04;99797.16;;;12.94;67.31
26823;BME280;14852;51.910;8.878;2023-02-18T06:16:30;99792.88;;;12.93;67.53
26823;BME280;14852;51.910;8.878;2023-02-18T06:18:56;99797.16;;;12.94;67.48
26823;BME280;14852;51.910;8.878;2023-02-18T06:21:22;99796.13;;;12.96;67.33
26823;BME280;14852;51.910;8.878;2023-02-18T06:23:48;99787.47;;;12.96;67.33
26823;BME280;14852;51.910;8.878;2023-02-18T06:26:14;99784.84;;;12.96;67.72
26823;BME280;14852;51.910;8.878;2023-02-18T06:28:40;99778.97;;;12.92;67.75
26823;BME280;14852;51.910;8.878;2023-02-18T06:31:06;99769.59;;;12.90;67.65
26823;BME280;14852;51.910;8.878;2023-02-18T06:33:32;99780.13;;;12.88;67.97
26823;BME280;14852;51.910;8.878;2023-02-18T06:36:01;99774.91;;;12.88;67.76
26823;BME280;14852;51.910;8.878;2023-02-18T06:38:27;99769.69;;;12.88;67.80
26823;BME280;14852;51.910;8.878;2023-02-18T06:40:53;99759.25;;;12.88;68.19
26823;BME280;14852;51.910;8.878;2023-02-18T06:43:20;99763.53;;;12.89;68.04
26823;BME280;14852;51.910;8.878;2023-02-18T06:45:46;99766.06;;;12.91;67.69
26823;BME280;14852;51.910;8.878;2023-02-18T06:48:12;99760.72;;;12.92;67.96
26823;BME280;14852;51.910;8.878;2023-02-18T06:50:40;99767.63;;;12.93;68.08
26823;BME280;14852;51.910;8.878;2023-02-18T06:53:06;99762.41;;;12.93;67.83
26823;BME280;14852;51.910;8.878;2023-02-18T06:55:32;99770.34;;;12.92;67.88
26823;BME280;14852;51.910;8.878;2023-02-18T06:57:58;99768.56;;;12.92;67.88
26823;BME280;14852;51.910;8.878;2023-02-18T07:00:24;99757.09;;;12.95;68.11
26823;BME280;14852;51.910;8.878;2023-02-18T07:02:50;99756.25;;;12.94;67.81
26823;BME280;14852;51.910;8.878;2023-02-18T07:05:15;99762.63;;;12.90;68.02
26823;BME280;14852;51.910;8.878;2023-02-18T07:07:41;99763.34;;;12.92;68.11
26823;BME280;14852;51.910;8.878;2023-02-18T07:10:08;99758.03;;;12.94;68.20
26823;BME280;14852;51.910;8.878;2023-02-18T07:12:34;99756.25;;;12.94;67.83
26823;BME280;14852;51.910;8.878;2023-02-18T07:15:00;99762.31;;;12.95;68.18
26823;BME280;14852;51.910;8.878;2023-02-18T07:17:26;99759.91;;;12.92;68.02
26823;BME280;14852;51.910;8.878;2023-02-18T07:19:52;99752.91;;;12.92;68.09
26823;BME280;14852;51.910;8.878;2023-02-18T07:22:18;99745.19;;;12.91;68.42
26823;BME280;14852;51.910;8.878;2023-02-18T07:24:43;99740.06;;;12.89;68.08
26823;BME280;14852;51.910;8.878;2023-02-18T07:27:09;99731.41;;;12.89;68.22
26823;BME280;14852;51.910;8.878;2023-02-18T07:29:35;99720.97;;;12.89;68.25
26823;BME280;14852;51.910;8.878;2023-02-18T07:32:01;99723.59;;;12.89;68.39
26823;BME280;14852;51.910;8.878;2023-02-18T07:34:26;99746.13;;;12.90;68.26
26823;BME280;14852;51.910;8.878;2023-02-18T07:36:53;99739.16;;;12.90;68.17
26823;BME280;14852;51.910;8.878;2023-02-18T07:39:19;99730.28;;;12.93;68.19
26823;BME280;14852;51.910;8.878;2023-02-18T07:41:46;99733.00;;;12.91;68.36
26823;BME280;14852;51.910;8.878;2023-02-18T07:44:14;99739.06;;;12.92;68.55
26823;BME280;14852;51.910;8.878;2023-02-18T07:46:41;99737.38;;;12.91;68.38
26823;BME280;14852;51.910;8.878;2023-02-18T07:49:08;99728.81;;;12.89;68.29
26823;BME280;14852;51.910;8.878;2023-02-18T07:51:34;99734.56;;;12.94;68.56
26823;BME280;14852;51.910;8.878;2023-02-18T07:54:00;99732.03;;;12.92;68.39
26823;BME280;14852;51.910;8.878;2023-02-18T07:56:25;99734.47;;;12.95;68.45
26823;BME280;14852;51.910;8.878;2023-02-18T07:58:51;99729.06;;;12.98;68.55
26823;BME280;14852;51.910;8.878;2023-02-18T08:01:17;99725.53;;;12.99;68.24
26823;BME280;14852;51.910;8.878;2023-02-18T08:03:43;99731.50;;;13.01;68.45
26823;BME280;14852;51.910;8.878;2023-02-18T08:06:21;99735.56;;;13.05;68.22
26823;BME280;14852;51.910;8.878;2023-02-18T08:08:49;99733.88;;;13.04;68.43
26823;BME280;14852;51.910;8.878;2023-02-18T08:11:15;99737.44;;;13.03;68.23
26823;BME280;14852;51.910;8.878;2023-02-18T08:13:41;99729.50;;;13.05;68.37
26823;BME280;14852;51.910;8.878;2023-02-18T08:16:09;99728.28;;;13.11;68.30
26823;BME280;14852;51.910;8.878;2023-02-18T08:18:35;99724.09;;;13.08;68.25
26823;BME280;14852;51.910;8.878;2023-02-18T08:21:01;99730.16;;;13.09;68.38
26823;BME280;14852;51.910;8.878;2023-02-18T08:23:27;99733.50;;;13.11;68.14
26823;BME280;14852;51.910;8.878;2023-02-18T08:25:53;99733.50;;;13.11;68.41
26823;BME280;14852;51.910;8.878;2023-02-18T08:28:22;99728.19;;;13.12;67.93
26823;BME280;14852;51.910;8.878;2023-02-18T08:30:52;99729.97;;;13.12;68.54
26823;BME280;14852;51.910;8.878;2023-02-18T08:33:19;99721.22;;;13.13;68.02
26823;BME280;14852;51.910;8.878;2023-02-18T08:35:47;99729.88;;;13.13;68.16
26823;BME280;14852;51.910;8.878;2023-02-18T08:38:15;99722.06;;;13.13;68.16
26823;BME280;14852;51.910;8.878;2023-02-18T08:40:41;99719.25;;;13.16;68.42
26823;BME280;14852;51.910;8.878;2023-02-18T08:43:07;99710.50;;;13.17;68.25
26823;BME280;14852;51.910;8.878;2023-02-18T08:45:33;99726.16;;;13.17;67.81
26823;BME280;14852;51.910;8.878;2023-02-18T08:47:59;99726.25;;;13.16;67.79
26823;BME280;14852;51.910;8.878;2023-02-18T08:50:26;99707.91;;;13.17;68.13
26823;BME280;14852;51.910;8.878;2023-02-18T08:52:52;99710.72;;;13.14;68.04
26823;BME280;14852;51.910;8.878;2023-02-18T08:55:18;99709.09;;;13.12;68.51
26823;BME280;14852;51.910;8.878;2023-02-18T08:57:47;99710.88;;;13.11;68.01
26823;BME280;14852;51.910;8.878;2023-02-18T09:00:15;99709.19;;;13.10;68.08
26823;BME280;14852;51.910;8.878;2023-02-18T09:02:41;99712.00;;;13.07;68.23
26823;BME280;14852;51.910;8.878;2023-02-18T09:05:08;99714.59;;;13.07;68.52
26823;BME280;14852;51.910;8.878;2023-02-18T09:07:35;99712.09;;;13.05;68.38
26823;BME280;14852;51.910;8.878;2023-02-18T09:10:01;99714.69;;;13.05;68.14
26823;BME280;14852;51.910;8.878;2023-02-18T09:12:27;99703.31;;;13.06;68.72
26823;BME280;14852;51.910;8.878;2023-02-18T09:14:53;99708.44;;;13.08;68.12
26823;BME280;14852;51.910;8.878;2023-02-18T09:17:20;99694.66;;;13.06;68.29
26823;BME280;14852;51.910;8.878;2023-02-18T09:19:45;99705.00;;;13.07;68.58
26823;BME280;14852;51.910;8.878;2023-02-18T09:22:11;99705.00;;;13.07;68.02
26823;BME280;14852;51.910;8.878;2023-02-18T09:24:39;99696.34;;;13.07;68.03
26823;BME280;14852;51.910;8.878;2023-02-18T09:27:06;99687.59;;;13.08;68.60
26823;BME280;14852;51.910;8.878;2023-02-18T09:29:33;99686.94;;;13.04;68.47
26823;BME280;14852;51.910;8.878;2023-02-18T09:32:01;99672.97;;;13.05;68.64
26823;BME280;14852;51.910;8.878;2023-02-18T09:34:27;99689.53;;;13.04;68.20
26823;BME280;14852;51.910;8.878;2023-02-18T09:36:52;99692.91;;;13.06;68.10
26823;BME280;14852;51.910;8.878;2023-02-18T09:39:19;99695.50;;;13.06;68.33
26823;BME280;14852;51.910;8.878;2023-02-18T09:41:56;99665.88;;;13.07;68.13
26823;BME280;14852;51.910;8.878;2023-02-18T09:44:49;99688.69;;;13.04;68.27
26823;BME280;14852;51.910;8.878;2023-02-18T09:47:30;99686.94;;;13.04;68.07
26823;BME280;14852;51.910;8.878;2023-02-18T09:52:34;99690.19;;;13.08;67.98
26823;BME280;14852;51.910;8.878;2023-02-18T09:55:23;99693.81;;;13.05;67.98
26823;BME280;14852;51.910;8.878;2023-02-18T09:57:56;99689.53;;;13.04;67.85
26823;BME280;14852;51.910;8.878;2023-02-18T10:00:37;99693.63;;;13.09;68.03
26823;BME280;14852;51.910;8.878;2023-02-18T10:03:07;99697.28;;;13.06;68.05
26823;BME280;14852;51.910;8.878;2023-02-18T10:05:36;99682.78;;;13.02;68.20
26823;BME280;14852;51.910;8.878;2023-02-18T10:08:18;99687.06;;;13.03;67.76
26823;BME280;14852;51.910;8.878;2023-02-18T10:10:46;99658.66;;;12.98;67.87
26823;BME280;14852;51.910;8.878;2023-02-18T10:13:16;99645.50;;;13.00;68.13
26823;BME280;14852;51.910;8.878;2023-02-18T10:15:43;99654.56;;;12.94;68.00
26823;BME280;14852;51.910;8.878;2023-02-18T10:18:31;99671.13;;;12.93;68.09
26823;BME280;14852;51.910;8.878;2023-02-18T10:21:14;99659.25;;;12.89;68.06
26823;BME280;14852;51.910;8.878;2023-02-18T10:23:53;99695.53;;;12.92;68.30
26823;BME280;14852;51.910;8.878;2023-02-18T10:26:21;99691.16;;;12.93;67.88
26823;BME280;14852;51.910;8.878;2023-02-18T10:28:46;99692.84;;;12.94;68.08
26823;BME280;14852;51.910;8.878;2023-02-18T10:31:33;99651.09;;;12.94;67.75
26823;BME280;14852;51.910;8.878;2023-02-18T10:40:30;99654.13;;;12.88;68.00
26823;BME280;14852;51.910;8.878;2023-02-18T10:51:36;99684.09;;;12.81;68.05
26823;BME280;14852;51.910;8.878;2023-02-18T10:54:06;99686.91;;;12.78;68.12
26823;BME280;14852;51.910;8.878;2023-02-18T10:59:23;99683.06;;;12.83;67.94
26823;BME280;14852;51.910;8.878;2023-02-18T11:02:13;99677.69;;;12.86;67.72
26823;BME280;14852;51.910;8.878;2023-02-18T11:04:43;99680.28;;;12.86;67.50
26823;BME280;14852;51.910;8.878;2023-02-18T11:07:22;99669.75;;;12.88;67.84
26823;BME280;14852;51.910;8.878;2023-02-18T11:09:55;99694.16;;;12.87;67.48
26823;BME280;14852;51.910;8.878;2023-02-18T11:15:18;99672.75;;;12.82;67.38
26823;BME280;14852;51.910;8.878;2023-02-18T11:17:50;99660.94;;;12.76;67.75
26823;BME280;14852;51.910;8.878;2023-02-18T11:20:35;99675.94;;;12.73;67.59
26823;BME280;14852;51.910;8.878;2023-02-18T11:23:18;99685.25;;;12.77;67.29
26823;BME280;14852;51.910;8.878;2023-02-18T11:26:04;99704.69;;;12.85;67.45
26823;BME280;14852;51.910;8.878;2023-02-18T11:28:40;99697.25;;;12.79;67.31
26823;BME280;14852;51.910;8.878;2023-02-18T11:31:08;99710.00;;;12.69;67.11
26823;BME280;14852;51.910;8.878;2023-02-18T11:33:58;99709.38;;;12.66;67.50
26823;BME280;14852;51.910;8.878;2023-02-18T11:36:31;99706.19;;;12.61;67.26
26823;BME280;14852;51.910;8.878;2023-02-18T11:39:05;99705.19;;;12.63;67.76
26823;BME280;14852;51.910;8.878;2023-02-18T11:41:43;99678.84;;;12.68;67.75
26823;BME280;14852;51.910;8.878;2023-02-18T11:45:24;99715.44;;;12.66;67.62
26823;BME280;14852;51.910;8.878;2023-02-18T11:49:43;99702.84;;;12.59;67.28
26823;BME280;14852;51.910;8.878;2023-02-18T11:52:39;99702.66;;;12.62;67.55
26823;BME280;14852;51.910;8.878;2023-02-18T11:55:20;99703.59;;;12.61;67.66
26823;BME280;14852;51.910;8.878;2023-02-18T11:57:58;99689.94;;;12.57;67.12
26823;BME280;14852;51.910;8.878;2023-02-18T12:03:37;99699.22;;;12.47;67.97
26823;BME280;14852;51.910;8.878;2023-02-18T12:06:27;99701.81;;;12.47;67.75
26823;BME280;14852;51.910;8.878;2023-02-18T12:09:08;99702.97;;;12.43;67.94
26823;BME280;14852;51.910;8.878;2023-02-18T12:11:42;99711.72;;;12.42;67.58
26823;BME280;14852;51.910;8.878;2023-02-18T12:14:19;99716.75;;;12.45;67.92
26823;BME280;14852;51.910;8.878;2023-02-18T12:20:14;99704.34;;;12.49;67.66
26823;BME280;14852;51.910;8.878;2023-02-18T12:23:30;99708.81;;;12.47;67.30
26823;BME280;14852;51.910;8.878;2023-02-18T12:32:49;99692.53;;;12.43;67.46
26823;BME280;14852;51.910;8.878;2023-02-18T12:53:06;99683.31;;;12.38;68.13
26823;BME280;14852;51.910;8.878;2023-02-18T12:56:08;99701.38;;;12.41;68.21
26823;BME280;14852;51.910;8.878;2023-02-18T12:59:16;99709.38;;;12.38;68.00
26823;BME280;14852;51.910;8.878;2023-02-18T13:02:14;99713.75;;;12.37;68.38
26823;BME280;14852;51.910;8.878;2023-02-18T13:05:02;99709.53;;;12.34;68.05
26823;BME280;14852;51.910;8.878;2023-02-18T13:07:54;99718.19;;;12.35;68.12
26823;BME280;14852;51.910;8.878;2023-02-18T13:10:41;99727.59;;;12.38;68.25
26823;BME280;14852;51.910;8.878;2023-02-18T13:13:33;99722.13;;;12.42;68.06
26823;BME280;14852;51.910;8.878;2023-02-18T13:16:14;99723.81;;;12.43;67.89
26823;BME280;14852;51.910;8.878;2023-02-18T13:19:20;99718.28;;;12.48;68.09
26823;BME280;14852;51.910;8.878;2023-02-18T13:21:53;99722.59;;;12.49;67.91
26823;BME280;14852;51.910;8.878;2023-02-18T13:24:38;99717.38;;;12.49;67.95
26823;BME280;14852;51.910;8.878;2023-02-18T13:27:38;99717.19;;;12.52;67.91
26823;BME280;14852;51.910;8.878;2023-02-18T13:36:13;99714.69;;;12.64;67.72
26823;BME280;14852;51.910;8.878;2023-02-18T13:39:06;99714.50;;;12.67;67.75
26823;BME280;14852;51.910;8.878;2023-02-18T13:41:40;99714.75;;;12.63;67.76
26823;BME280;14852;51.910;8.878;2023-02-18T13:44:07;99712.91;;;12.65;67.81
26823;BME280;14852;51.910;8.878;2023-02-18T13:46:52;99715.69;;;12.62;68.11
26823;BME280;14852;51.910;8.878;2023-02-18T13:49:25;99718.22;;;12.63;67.55
26823;BME280;14852;51.910;8.878;2023-02-18T13:51:54;99716.44;;;12.64;67.92
26823;BME280;14852;51.910;8.878;2023-02-18T13:54:30;99720.63;;;12.66;67.82
26823;BME280;14852;51.910;8.878;2023-02-18T13:57:21;99723.88;;;12.70;67.91
26823;BME280;14852;51.910;8.878;2023-02-18T13:59:58;99713.66;;;12.67;67.79
26823;BME280;14852;51.910;8.878;2023-02-18T14:02:33;99705.00;;;12.66;68.02
26823;BME280;14852;51.910;8.878;2023-02-18T14:05:20;99709.53;;;12.77;67.76
26823;BME280;14852;51.910;8.878;2023-02-18T14:08:14;99708.88;;;12.74;67.61
26823;BME280;14852;51.910;8.878;2023-02-18T14:13:46;99713.66;;;12.67;67.60
26823;BME280;14852;51.910;8.878;2023-02-18T14:16:13;99720.44;;;12.69;67.94
26823;BME280;14852;51.910;8.878;2023-02-18T14:34:40;99738.97;;;12.79;67.91
26823;BME280;14852;51.910;8.878;2023-02-18T14:37:36;99727.78;;;12.77;67.75
26823;BME280;14852;51.910;8.878;2023-02-18T14:40:55;99730.00;;;12.83;67.95
26823;BME280;14852;51.910;8.878;2023-02-18T14:44:07;99746.50;;;12.84;67.76
26823;BME280;14852;51.910;8.878;2023-02-18T14:47:13;99723.88;;;12.84;67.70
26823;BME280;14852;51.910;8.878;2023-02-18T14:49:45;99743.88;;;12.84;68.00
26823;BME280;14852;51.910;8.878;2023-02-18T14:52:35;99748.00;;;12.88;67.92
26823;BME280;14852;51.910;8.878;2023-02-18T14:55:05;99743.63;;;12.88;67.67
26823;BME280;14852;51.910;8.878;2023-02-18T14:57:44;99753.88;;;12.91;67.77
26823;BME280;14852;51.910;8.878;2023-02-18T15:00:21;99760.84;;;12.91;67.50
26823;BME280;14852;51.910;8.878;2023-02-18T15:02:50;99748.81;;;12.88;67.40
26823;BME280;14852;51.910;8.878;2023-02-18T15:05:23;99760.94;;;12.89;67.53
26823;BME280;14852;51.910;8.878;2023-02-18T15:08:06;99760.00;;;12.90;67.77
26823;BME280;14852;51.910;8.878;2023-02-18T15:10:52;99755.63;;;12.91;67.79
26823;BME280;14852;51.910;8.878;2023-02-18T15:13:36;99761.69;;;12.91;67.88
26823;BME280;14852;51.910;8.878;2023-02-18T15:16:08;99763.34;;;12.92;67.49
26823;BME280;14852;51.910;8.878;2023-02-18T15:18:42;99760.72;;;12.92;67.96
26823;BME280;14852;51.910;8.878;2023-02-18T15:21:22;99752.91;;;12.92;67.61